sensor_id;sensor_type;location;lat;lon;timestamp;P1;durP1;ratioP1;P2;durP2;ratioP2
7497;SDS011;3790;48.806;9.140;2023-02-28T00:00:09;2.40;;;1.40;;
7497;SDS011;3790;48.806;9.140;2023-02-28T00:05:12;3.47;;;1.73;;
7497;SDS011;3790;48.806;9.140;2023-02-28T00:10:24;3.40;;;1.70;;
7497;SDS011;3790;48.806;9.140;2023-02-28T00:15:27;3.47;;;1.50;;
7497;SDS011;3790;48.806;9.140;2023-02-28T00:20:27;2.83;;;1.43;;
7497;SDS011;3790;48.806;9.140;2023-02-28T00:25:29;3.60;;;1.70;;
7497;SDS011;3790;48.806;9.140;2023-02-28T00:30:29;3.80;;;1.80;;
7497;SDS011;3790;48.806;9.140;2023-02-28T00:35:30;2.27;;;1.40;;
7497;SDS011;3790;48.806;9.140;2023-02-28T00:40:31;3.47;;;1.67;;
7497;SDS011;3790;48.806;9.140;2023-02-28T00:45:31;6.43;;;2.13;;
7497;SDS011;3790;48.806;9.140;2023-02-28T00:50:32;3.27;;;1.53;;
7497;SDS011;3790;48.806;9.140;2023-02-28T00:55:32;7.40;;;2.07;;
7497;SDS011;3790;48.806;9.140;2023-02-28T01:00:33;5.03;;;1.47;;
7497;SDS011;3790;48.806;9.140;2023-02-28T01:05:33;3.27;;;1.80;;
7497;SDS011;3790;48.806;9.140;2023-02-28T01:10:34;1.90;;;1.30;;
7497;SDS011;3790;48.806;9.140;2023-02-28T01:15:36;4.63;;;2.40;;
7497;SDS011;3790;48.806;9.140;2023-02-28T01:20:37;3.13;;;1.87;;
7497;SDS011;3790;48.806;9.140;2023-02-28T01:25:38;3.60;;;1.80;;
7497;SDS011;3790;48.806;9.140;2023-02-28T01:30:38;6.43;;;2.30;;
7497;SDS011;3790;48.806;9.140;2023-02-28T01:35:39;4.30;;;1.97;;
7497;SDS011;3790;48.806;9.140;2023-02-28T01:40:39;4.80;;;2.20;;
7497;SDS011;3790;48.806;9.140;2023-02-28T01:45:40;3.33;;;1.93;;
7497;SDS011;3790;48.806;9.140;2023-02-28T01:50:41;6.87;;;2.80;;
7497;SDS011;3790;48.806;9.140;2023-02-28T01:55:46;4.13;;;2.10;;
7497;SDS011;3790;48.806;9.140;2023-02-28T02:00:50;3.00;;;1.83;;
7497;SDS011;3790;48.806;9.140;2023-02-28T02:05:51;3.07;;;2.10;;
7497;SDS011;3790;48.806;9.140;2023-02-28T02:10:52;4.20;;;2.20;;
7497;SDS011;3790;48.806;9.140;2023-02-28T02:21:23;4.40;;;2.57;;
7497;SDS011;3790;48.806;9.140;2023-02-28T02:32:15;6.47;;;2.13;;
7497;SDS011;3790;48.806;9.140;2023-02-28T02:43:03;3.80;;;2.23;;
7497;SDS011;3790;48.806;9.140;2023-02-28T02:48:01;7.57;;;2.20;;
7497;SDS011;3790;48.806;9.140;2023-02-28T02:53:05;4.43;;;2.00;;
7497;SDS011;3790;48.806;9.140;2023-02-28T02:58:10;4.83;;;2.13;;
7497;SDS011;3790;48.806;9.140;2023-02-28T03:03:14;3.33;;;1.90;;
7497;SDS011;3790;48.806;9.140;2023-02-28T03:08:20;3.93;;;2.10;;
7497;SDS011;3790;48.806;9.140;2023-02-28T03:18:45;6.47;;;2.80;;
7497;SDS011;3790;48.806;9.140;2023-02-28T03:23:55;8.87;;;2.33;;
7497;SDS011;3790;48.806;9.140;2023-02-28T03:29:23;4.30;;;2.40;;
7497;SDS011;3790;48.806;9.140;2023-02-28T03:34:29;4.10;;;2.60;;
7497;SDS011;3790;48.806;9.140;2023-02-28T03:39:58;5.27;;;2.67;;
7497;SDS011;3790;48.806;9.140;2023-02-28T03:45:03;4.70;;;2.27;;
7497;SDS011;3790;48.806;9.140;2023-02-28T03:55:15;3.97;;;2.30;;
7497;SDS011;3790;48.806;9.140;2023-02-28T04:00:18;4.30;;;2.30;;
7497;SDS011;3790;48.806;9.140;2023-02-28T04:05:24;5.03;;;2.83;;
7497;SDS011;3790;48.806;9.140;2023-02-28T04:10:25;5.17;;;2.73;;
7497;SDS011;3790;48.806;9.140;2023-02-28T04:15:28;6.30;;;2.57;;
7497;SDS011;3790;48.806;9.140;2023-02-28T04:20:29;5.17;;;2.83;;
7497;SDS011;3790;48.806;9.140;2023-02-28T04:25:29;8.03;;;3.00;;
7497;SDS011;3790;48.806;9.140;2023-02-28T04:30:30;4.47;;;2.40;;
7497;SDS011;3790;48.806;9.140;2023-02-28T04:35:32;5.37;;;3.13;;
7497;SDS011;3790;48.806;9.140;2023-02-28T04:40:32;4.70;;;2.50;;
7497;SDS011;3790;48.806;9.140;2023-02-28T04:45:33;6.97;;;3.30;;
7497;SDS011;3790;48.806;9.140;2023-02-28T04:50:35;5.23;;;2.77;;
7497;SDS011;3790;48.806;9.140;2023-02-28T04:55:35;9.77;;;2.60;;
7497;SDS011;3790;48.806;9.140;2023-02-28T05:00:36;6.33;;;2.87;;
7497;SDS011;3790;48.806;9.140;2023-02-28T05:05:36;4.63;;;2.93;;
7497;SDS011;3790;48.806;9.140;2023-02-28T05:10:37;6.37;;;3.00;;
7497;SDS011;3790;48.806;9.140;2023-02-28T05:15:38;4.17;;;2.70;;
7497;SDS011;3790;48.806;9.140;2023-02-28T05:20:38;6.30;;;2.93;;
7497;SDS011;3790;48.806;9.140;2023-02-28T05:25:39;4.63;;;2.70;;
7497;SDS011;3790;48.806;9.140;2023-02-28T05:30:40;5.10;;;3.00;;
7497;SDS011;3790;48.806;9.140;2023-02-28T05:35:41;4.20;;;3.07;;
7497;SDS011;3790;48.806;9.140;2023-02-28T05:40:45;5.23;;;2.97;;
7497;SDS011;3790;48.806;9.140;2023-02-28T05:45:46;6.70;;;3.17;;
7497;SDS011;3790;48.806;9.140;2023-02-28T05:50:46;7.97;;;3.43;;
7497;SDS011;3790;48.806;9.140;2023-02-28T05:55:47;4.67;;;3.13;;
7497;SDS011;3790;48.806;9.140;2023-02-28T06:00:47;3.80;;;2.40;;
7497;SDS011;3790;48.806;9.140;2023-02-28T06:05:48;4.73;;;2.87;;
7497;SDS011;3790;48.806;9.140;2023-02-28T06:10:48;5.13;;;3.13;;
7497;SDS011;3790;48.806;9.140;2023-02-28T06:15:49;7.13;;;3.50;;
7497;SDS011;3790;48.806;9.140;2023-02-28T06:20:53;6.50;;;3.50;;
7497;SDS011;3790;48.806;9.140;2023-02-28T06:25:54;5.87;;;3.60;;
7497;SDS011;3790;48.806;9.140;2023-02-28T06:30:58;5.13;;;3.27;;
7497;SDS011;3790;48.806;9.140;2023-02-28T06:35:58;7.13;;;3.47;;
7497;SDS011;3790;48.806;9.140;2023-02-28T06:40:59;5.27;;;3.20;;
7497;SDS011;3790;48.806;9.140;2023-02-28T06:46:00;5.17;;;3.27;;
7497;SDS011;3790;48.806;9.140;2023-02-28T06:51:04;5.23;;;3.23;;
7497;SDS011;3790;48.806;9.140;2023-02-28T06:56:07;6.60;;;3.30;;
7497;SDS011;3790;48.806;9.140;2023-02-28T07:01:09;5.80;;;3.50;;
7497;SDS011;3790;48.806;9.140;2023-02-28T07:06:09;5.37;;;3.07;;
7497;SDS011;3790;48.806;9.140;2023-02-28T07:11:10;7.47;;;3.97;;
7497;SDS011;3790;48.806;9.140;2023-02-28T07:16:11;5.50;;;3.37;;
7497;SDS011;3790;48.806;9.140;2023-02-28T07:21:12;7.87;;;3.03;;
7497;SDS011;3790;48.806;9.140;2023-02-28T07:26:14;6.33;;;3.17;;
7497;SDS011;3790;48.806;9.140;2023-02-28T07:31:16;5.57;;;3.40;;
7497;SDS011;3790;48.806;9.140;2023-02-28T07:36:18;4.73;;;3.40;;
7497;SDS011;3790;48.806;9.140;2023-02-28T07:41:21;6.60;;;4.03;;
7497;SDS011;3790;48.806;9.140;2023-02-28T07:46:25;6.57;;;3.60;;
7497;SDS011;3790;48.806;9.140;2023-02-28T07:51:26;5.70;;;3.57;;
7497;SDS011;3790;48.806;9.140;2023-02-28T07:56:26;7.23;;;3.77;;
7497;SDS011;3790;48.806;9.140;2023-02-28T08:01:27;6.33;;;3.77;;
7497;SDS011;3790;48.806;9.140;2023-02-28T08:06:27;6.57;;;4.00;;
7497;SDS011;3790;48.806;9.140;2023-02-28T08:11:28;7.43;;;4.10;;
7497;SDS011;3790;48.806;9.140;2023-02-28T08:16:28;7.13;;;4.53;;
7497;SDS011;3790;48.806;9.140;2023-02-28T08:21:29;12.70;;;4.50;;
7497;SDS011;3790;48.806;9.140;2023-02-28T08:26:30;7.13;;;3.97;;
7497;SDS011;3790;48.806;9.140;2023-02-28T08:31:30;7.80;;;3.67;;
7497;SDS011;3790;48.806;9.140;2023-02-28T08:36:30;6.00;;;3.60;;
7497;SDS011;3790;48.806;9.140;2023-02-28T08:41:32;6.53;;;3.67;;
7497;SDS011;3790;48.806;9.140;2023-02-28T08:46:33;10.80;;;4.10;;
7497;SDS011;3790;48.806;9.140;2023-02-28T08:51:33;10.70;;;4.17;;
7497;SDS011;3790;48.806;9.140;2023-02-28T08:56:34;6.27;;;3.57;;
7497;SDS011;3790;48.806;9.140;2023-02-28T09:01:36;7.57;;;4.03;;
7497;SDS011;3790;48.806;9.140;2023-02-28T09:06:36;5.77;;;3.83;;
7497;SDS011;3790;48.806;9.140;2023-02-28T09:11:37;9.00;;;3.53;;
7497;SDS011;3790;48.806;9.140;2023-02-28T09:16:38;5.50;;;3.93;;
7497;SDS011;3790;48.806;9.140;2023-02-28T09:21:38;10.70;;;5.00;;
7497;SDS011;3790;48.806;9.140;2023-02-28T09:26:39;6.37;;;4.07;;
7497;SDS011;3790;48.806;9.140;2023-02-28T09:31:40;6.93;;;4.33;;
7497;SDS011;3790;48.806;9.140;2023-02-28T09:36:40;14.07;;;4.73;;
7497;SDS011;3790;48.806;9.140;2023-02-28T09:41:44;5.53;;;4.10;;
7497;SDS011;3790;48.806;9.140;2023-02-28T09:46:51;7.67;;;4.03;;
7497;SDS011;3790;48.806;9.140;2023-02-28T09:52:10;7.10;;;4.27;;
7497;SDS011;3790;48.806;9.140;2023-02-28T09:57:16;7.70;;;4.40;;
7497;SDS011;3790;48.806;9.140;2023-02-28T10:02:24;7.60;;;4.10;;
7497;SDS011;3790;48.806;9.140;2023-02-28T10:13:02;8.50;;;3.77;;
7497;SDS011;3790;48.806;9.140;2023-02-28T10:18:12;5.90;;;3.90;;
7497;SDS011;3790;48.806;9.140;2023-02-28T10:23:26;6.53;;;4.17;;
7497;SDS011;3790;48.806;9.140;2023-02-28T10:28:33;7.83;;;4.23;;
7497;SDS011;3790;48.806;9.140;2023-02-28T10:33:34;8.73;;;4.13;;
7497;SDS011;3790;48.806;9.140;2023-02-28T10:38:36;6.47;;;4.00;;
7497;SDS011;3790;48.806;9.140;2023-02-28T10:43:39;6.77;;;3.63;;
7497;SDS011;3790;48.806;9.140;2023-02-28T11:03:56;6.37;;;4.27;;
7497;SDS011;3790;48.806;9.140;2023-02-28T11:09:03;6.97;;;4.17;;
7497;SDS011;3790;48.806;9.140;2023-02-28T11:14:36;11.63;;;7.47;;
7497;SDS011;3790;48.806;9.140;2023-02-28T11:19:50;9.43;;;4.47;;
7497;SDS011;3790;48.806;9.140;2023-02-28T11:24:53;6.63;;;3.90;;
7497;SDS011;3790;48.806;9.140;2023-02-28T11:29:57;6.03;;;3.87;;
7497;SDS011;3790;48.806;9.140;2023-02-28T11:40:15;6.93;;;3.67;;
7497;SDS011;3790;48.806;9.140;2023-02-28T11:45:35;6.17;;;4.17;;
7497;SDS011;3790;48.806;9.140;2023-02-28T11:56:11;6.53;;;4.33;;
7497;SDS011;3790;48.806;9.140;2023-02-28T12:06:50;8.07;;;3.33;;
7497;SDS011;3790;48.806;9.140;2023-02-28T12:11:56;5.47;;;4.13;;
7497;SDS011;3790;48.806;9.140;2023-02-28T12:28:27;4.70;;;3.10;;
7497;SDS011;3790;48.806;9.140;2023-02-28T12:33:34;5.53;;;3.60;;
7497;SDS011;3790;48.806;9.140;2023-02-28T12:38:40;4.53;;;2.90;;
7497;SDS011;3790;48.806;9.140;2023-02-28T12:43:46;6.50;;;3.40;;
7497;SDS011;3790;48.806;9.140;2023-02-28T12:48:53;9.17;;;3.20;;
7497;SDS011;3790;48.806;9.140;2023-02-28T12:59:29;5.17;;;3.33;;
7497;SDS011;3790;48.806;9.140;2023-02-28T13:05:15;4.60;;;3.10;;
7497;SDS011;3790;48.806;9.140;2023-02-28T13:10:14;5.77;;;3.80;;
7497;SDS011;3790;48.806;9.140;2023-02-28T13:15:18;6.33;;;3.57;;
7497;SDS011;3790;48.806;9.140;2023-02-28T13:20:29;5.83;;;3.50;;
7497;SDS011;3790;48.806;9.140;2023-02-28T13:47:22;8.30;;;3.70;;
7497;SDS011;3790;48.806;9.140;2023-02-28T13:57:20;4.57;;;3.33;;
7497;SDS011;3790;48.806;9.140;2023-02-28T14:02:28;5.90;;;3.63;;
7497;SDS011;3790;48.806;9.140;2023-02-28T14:07:52;6.67;;;3.37;;
7497;SDS011;3790;48.806;9.140;2023-02-28T14:13:14;5.10;;;2.70;;
7497;SDS011;3790;48.806;9.140;2023-02-28T14:18:51;5.50;;;3.07;;
7497;SDS011;3790;48.806;9.140;2023-02-28T14:29:23;4.27;;;2.80;;
7497;SDS011;3790;48.806;9.140;2023-02-28T14:34:55;4.43;;;3.33;;
7497;SDS011;3790;48.806;9.140;2023-02-28T14:40:12;4.13;;;3.20;;
7497;SDS011;3790;48.806;9.140;2023-02-28T14:45:19;8.33;;;3.33;;
7497;SDS011;3790;48.806;9.140;2023-02-28T14:50:22;3.87;;;2.90;;
7497;SDS011;3790;48.806;9.140;2023-02-28T14:55:26;4.87;;;3.30;;
7497;SDS011;3790;48.806;9.140;2023-02-28T15:00:29;6.63;;;3.57;;
7497;SDS011;3790;48.806;9.140;2023-02-28T15:05:33;11.03;;;3.63;;
7497;SDS011;3790;48.806;9.140;2023-02-28T15:10:34;4.73;;;3.27;;
7497;SDS011;3790;48.806;9.140;2023-02-28T15:20:48;5.70;;;3.23;;
7497;SDS011;3790;48.806;9.140;2023-02-28T15:25:53;5.90;;;3.30;;
7497;SDS011;3790;48.806;9.140;2023-02-28T15:30:57;6.17;;;3.60;;
7497;SDS011;3790;48.806;9.140;2023-02-28T15:36:03;6.80;;;3.73;;
7497;SDS011;3790;48.806;9.140;2023-02-28T15:41:21;6.67;;;3.83;;
7497;SDS011;3790;48.806;9.140;2023-02-28T15:46:37;7.67;;;3.97;;
7497;SDS011;3790;48.806;9.140;2023-02-28T15:51:39;7.47;;;4.37;;
7497;SDS011;3790;48.806;9.140;2023-02-28T15:56:43;5.23;;;3.67;;
7497;SDS011;3790;48.806;9.140;2023-02-28T16:01:46;5.93;;;4.07;;
7497;SDS011;3790;48.806;9.140;2023-02-28T16:12:00;5.77;;;4.23;;
7497;SDS011;3790;48.806;9.140;2023-02-28T16:17:04;6.23;;;3.93;;
7497;SDS011;3790;48.806;9.140;2023-02-28T16:22:09;6.30;;;4.20;;
7497;SDS011;3790;48.806;9.140;2023-02-28T16:27:30;7.03;;;4.10;;
7497;SDS011;3790;48.806;9.140;2023-02-28T16:32:35;7.33;;;3.83;;
7497;SDS011;3790;48.806;9.140;2023-02-28T16:37:36;5.53;;;4.60;;
7497;SDS011;3790;48.806;9.140;2023-02-28T16:42:37;14.83;;;4.87;;
7497;SDS011;3790;48.806;9.140;2023-02-28T16:47:38;7.03;;;4.37;;
7497;SDS011;3790;48.806;9.140;2023-02-28T16:52:38;9.13;;;4.43;;
7497;SDS011;3790;48.806;9.140;2023-02-28T16:57:39;7.43;;;4.43;;
7497;SDS011;3790;48.806;9.140;2023-02-28T17:02:40;10.53;;;5.20;;
7497;SDS011;3790;48.806;9.140;2023-02-28T17:07:41;8.40;;;4.90;;
7497;SDS011;3790;48.806;9.140;2023-02-28T17:12:42;6.73;;;4.30;;
7497;SDS011;3790;48.806;9.140;2023-02-28T17:17:43;8.07;;;5.17;;
7497;SDS011;3790;48.806;9.140;2023-02-28T17:22:44;10.10;;;5.57;;
7497;SDS011;3790;48.806;9.140;2023-02-28T17:27:45;12.93;;;5.37;;
7497;SDS011;3790;48.806;9.140;2023-02-28T17:32:46;7.87;;;5.07;;
7497;SDS011;3790;48.806;9.140;2023-02-28T17:37:46;11.23;;;5.30;;
7497;SDS011;3790;48.806;9.140;2023-02-28T17:42:47;9.17;;;5.97;;
7497;SDS011;3790;48.806;9.140;2023-02-28T17:47:48;11.43;;;6.13;;
7497;SDS011;3790;48.806;9.140;2023-02-28T17:52:50;7.57;;;5.50;;
7497;SDS011;3790;48.806;9.140;2023-02-28T17:57:50;7.63;;;5.30;;
7497;SDS011;3790;48.806;9.140;2023-02-28T18:02:51;10.60;;;5.33;;
7497;SDS011;3790;48.806;9.140;2023-02-28T18:07:51;7.43;;;5.20;;
7497;SDS011;3790;48.806;9.140;2023-02-28T18:12:52;13.53;;;5.97;;
7497;SDS011;3790;48.806;9.140;2023-02-28T18:17:53;6.50;;;5.27;;
7497;SDS011;3790;48.806;9.140;2023-02-28T18:22:54;9.53;;;6.10;;
7497;SDS011;3790;48.806;9.140;2023-02-28T18:27:54;10.57;;;6.07;;
7497;SDS011;3790;48.806;9.140;2023-02-28T18:32:58;9.30;;;5.80;;
7497;SDS011;3790;48.806;9.140;2023-02-28T18:38:03;8.87;;;5.93;;
7497;SDS011;3790;48.806;9.140;2023-02-28T18:43:06;9.80;;;6.43;;
7497;SDS011;3790;48.806;9.140;2023-02-28T18:48:08;9.80;;;6.33;;
7497;SDS011;3790;48.806;9.140;2023-02-28T18:53:08;9.40;;;6.57;;
7497;SDS011;3790;48.806;9.140;2023-02-28T18:58:10;12.90;;;6.57;;
7497;SDS011;3790;48.806;9.140;2023-02-28T19:03:10;14.80;;;8.33;;
7497;SDS011;3790;48.806;9.140;2023-02-28T19:08:11;11.77;;;6.80;;
7497;SDS011;3790;48.806;9.140;2023-02-28T19:13:12;13.03;;;7.33;;
7497;SDS011;3790;48.806;9.140;2023-02-28T19:18:13;11.90;;;7.67;;
7497;SDS011;3790;48.806;9.140;2023-02-28T19:23:16;10.07;;;7.20;;
7497;SDS011;3790;48.806;9.140;2023-02-28T19:28:18;16.97;;;7.60;;
7497;SDS011;3790;48.806;9.140;2023-02-28T19:33:19;12.00;;;6.77;;
7497;SDS011;3790;48.806;9.140;2023-02-28T19:38:19;11.43;;;6.67;;
7497;SDS011;3790;48.806;9.140;2023-02-28T19:43:20;13.43;;;7.57;;
7497;SDS011;3790;48.806;9.140;2023-02-28T19:48:20;14.20;;;7.37;;
7497;SDS011;3790;48.806;9.140;2023-02-28T19:53:25;10.47;;;7.03;;
7497;SDS011;3790;48.806;9.140;2023-02-28T19:58:26;10.67;;;6.93;;
7497;SDS011;3790;48.806;9.140;2023-02-28T20:03:27;15.30;;;9.87;;
7497;SDS011;3790;48.806;9.140;2023-02-28T20:08:27;14.23;;;7.90;;
7497;SDS011;3790;48.806;9.140;2023-02-28T20:13:28;10.20;;;6.97;;
7497;SDS011;3790;48.806;9.140;2023-02-28T20:18:29;12.47;;;7.50;;
7497;SDS011;3790;48.806;9.140;2023-02-28T20:23:30;11.83;;;7.10;;
7497;SDS011;3790;48.806;9.140;2023-02-28T20:28:30;11.93;;;8.40;;
7497;SDS011;3790;48.806;9.140;2023-02-28T20:33:31;9.33;;;6.93;;
7497;SDS011;3790;48.806;9.140;2023-02-28T20:38:31;13.37;;;7.93;;
7497;SDS011;3790;48.806;9.140;2023-02-28T20:43:32;10.77;;;6.73;;
7497;SDS011;3790;48.806;9.140;2023-02-28T20:48:33;14.13;;;7.17;;
7497;SDS011;3790;48.806;9.140;2023-02-28T20:53:37;14.93;;;8.00;;
7497;SDS011;3790;48.806;9.140;2023-02-28T20:58:37;11.90;;;7.90;;
7497;SDS011;3790;48.806;9.140;2023-02-28T21:03:39;15.57;;;8.30;;
7497;SDS011;3790;48.806;9.140;2023-02-28T21:08:39;13.40;;;8.13;;
7497;SDS011;3790;48.806;9.140;2023-02-28T21:13:41;11.30;;;6.80;;
7497;SDS011;3790;48.806;9.140;2023-02-28T21:18:42;11.13;;;7.70;;
7497;SDS011;3790;48.806;9.140;2023-02-28T21:23:43;12.83;;;8.13;;
7497;SDS011;3790;48.806;9.140;2023-02-28T21:28:55;13.07;;;8.03;;
7497;SDS011;3790;48.806;9.140;2023-02-28T21:33:58;13.23;;;7.90;;
7497;SDS011;3790;48.806;9.140;2023-02-28T21:39:11;13.83;;;8.03;;
7497;SDS011;3790;48.806;9.140;2023-02-28T21:44:17;13.40;;;7.60;;
7497;SDS011;3790;48.806;9.140;2023-02-28T21:49:18;15.93;;;8.57;;
7497;SDS011;3790;48.806;9.140;2023-02-28T21:54:19;15.00;;;8.10;;
7497;SDS011;3790;48.806;9.140;2023-02-28T21:59:19;12.83;;;8.93;;
7497;SDS011;3790;48.806;9.140;2023-02-28T22:04:24;11.23;;;7.40;;
7497;SDS011;3790;48.806;9.140;2023-02-28T22:09:25;12.77;;;8.13;;
7497;SDS011;3790;48.806;9.140;2023-02-28T22:14:26;12.30;;;7.90;;
7497;SDS011;3790;48.806;9.140;2023-02-28T22:19:26;14.73;;;8.50;;
7497;SDS011;3790;48.806;9.140;2023-02-28T22:24:27;14.10;;;8.93;;
7497;SDS011;3790;48.806;9.140;2023-02-28T22:29:27;10.83;;;7.87;;
7497;SDS011;3790;48.806;9.140;2023-02-28T22:34:28;16.20;;;8.20;;
7497;SDS011;3790;48.806;9.140;2023-02-28T22:39:28;14.40;;;8.47;;
7497;SDS011;3790;48.806;9.140;2023-02-28T22:44:29;13.00;;;7.93;;
7497;SDS011;3790;48.806;9.140;2023-02-28T22:49:30;14.77;;;8.63;;
7497;SDS011;3790;48.806;9.140;2023-02-28T22:54:30;15.50;;;8.53;;
7497;SDS011;3790;48.806;9.140;2023-02-28T22:59:30;14.07;;;8.87;;
7497;SDS011;3790;48.806;9.140;2023-02-28T23:04:31;13.87;;;8.90;;
7497;SDS011;3790;48.806;9.140;2023-02-28T23:09:32;15.53;;;9.13;;
7497;SDS011;3790;48.806;9.140;2023-02-28T23:14:33;15.07;;;8.63;;
7497;SDS011;3790;48.806;9.140;2023-02-28T23:19:33;12.73;;;8.27;;
7497;SDS011;3790;48.806;9.140;2023-02-28T23:24:34;11.80;;;7.87;;
7497;SDS011;3790;48.806;9.140;2023-02-28T23:29:36;11.77;;;8.05;;
7497;SDS011;3790;48.806;9.140;2023-02-28T23:34:36;15.30;;;8.30;;
7497;SDS011;3790;48.806;9.140;2023-02-28T23:39:37;16.70;;;9.10;;
7497;SDS011;3790;48.806;9.140;2023-02-28T23:44:37;13.07;;;8.50;;
7497;SDS011;3790;48.806;9.140;2023-02-28T23:49:38;12.43;;;8.23;;
7497;SDS011;3790;48.806;9.140;2023-02-28T23:54:39;16.67;;;8.90;;
7497;SDS011;3790;48.806;9.140;2023-02-28T23:59:40;14.87;;;9.50;;
